Terminal Aerodrome Forecast
Issued by NWS

Home | Current Version | Previous Version | Text Only | Print | Product List | Glossary On
Versions: 1 2 3 4 5 6 7 8 9 10 11 12 13 14 15 16 17 18 19 20
000
FTUS46 KLOX 280500
TAFLGB
TAF
KLGB 280530Z 2806/2906 VRB03KT P6SM BKN120
     FM281200 VRB03KT 6SM BR BKN008 OVC100
     FM281600 19008KT P6SM VCSH BKN100
     FM282200 29008KT P6SM BKN150
     FM290500 VRB03KT P6SM SCT150=

USA.gov is the U.S. government's official web portal to all federal, state and local government web resources and services.